• Join FlightAware (Why Join?)
  • Login
  • US Flag 
08:59PM EDT


 

Airport Tracker/Info


-or-


 

Live Flight TrackerFlight Track Log ✈ LBQ792 ✈ 08-May-2013 ✈ KSYR - KROC

Flight Track Log - Related Links

Times and Time Zones

All times are in EDT time to prevent confusion due to time zone crossing. See the LBQ792 flight status page for this flight to view local times or setup timezone preferences in your user account.

Time Position Orientation Groundspeed Altitude Reporting Facility
EDT Latitude Longitude Course Direction KTS MPH feet Rate Location/Type
10:08PM 43.1028 -76.0889 124° Southeast 105 121 1,500  Level Boston Center
10:09PM 43.1364 -76.0825 North 173 199 2,900 1,500 Climbing Boston Center
10:10PM 43.1836 -76.0994 345° North 190 219 4,600 1,500 Climbing Boston Center
10:12PM 43.2306 -76.1336 332° Northwest 195 224 6,000 660 Climbing Boston Center
10:13PM 43.2258 -76.2161 266° West 227 261 6,000  Level Boston Center
10:14PM 43.2206 -76.3069 265° West 241 277 6,000  Level Boston Center
10:14PM 43.2158 -76.3892 266° West 242 278 6,000  Level Boston Center
10:15PM 43.2064 -76.4797 262° West 241 277 6,000  Level Boston Center
10:16PM 43.2031 -76.5736 267° West 242 278 6,000  Level Boston Center
10:17PM 43.1953 -76.6672 264° West 243 280 6,000  Level Boston Center
10:18PM 43.1931 -76.6903 262° West 242 278 6,000  Level Cleveland Center
10:18PM 43.1886 -76.7475 264° West 242 278 6,000  Level Cleveland Center
10:19PM 43.1833 -76.8361 265° West 240 276 6,000  Level Cleveland Center
10:20PM 43.1736 -76.9278 262° West 242 278 6,000  Level Cleveland Center
10:21PM 43.1661 -77.0192 264° West 244 281 6,000  Level Cleveland Center
10:22PM 43.1606 -77.1136 265° West 246 283 6,000 -300 Level Cleveland Center
10:23PM 43.1381 -77.2003 250° West 247 284 5,500 -660 Descending Cleveland Center
10:24PM 43.1031 -77.2847 240° Southwest 257 296 4,700 -780 Descending Cleveland Center
10:25PM 43.0661 -77.3775 241° Southwest 253 291 4,000 -360 Descending Cleveland Center
10:26PM 43.0328 -77.4531 239° Southwest 237 273 4,000 -240 Level Cleveland Center
10:27PM 43.0014 -77.5342 242° Southwest 241 277 3,600 -660 Descending Cleveland Center
10:28PM 42.9767 -77.6233 249° West 260 299 2,700 -600 Descending Cleveland Center
10:30PM 42.9833 -77.7194 275° West 240 276 2,400 -180 Descending Cleveland Center
10:31PM 43.0281 -77.7572 328° Northwest 219 252 2,400 -600 Level Cleveland Center
10:32PM 43.0750 -77.7183 31° Northeast 178 205 1,300 -1,140 Descending Cleveland Center